Terminal Aerodrome Forecast
Issued by NWS San Angelo, TX

Home | Current Version | Previous Version | Text Only | Print | Product List | Glossary On
Versions: 1 2 3 4 5 6 7 8 9 10 11 12 13 14 15 16 17 18 19 20 21
722
FTUS44 KSJT 241734
TAFABI
TAF
KABI 241734Z 2418/2518 17011G20KT P6SM BKN025
     FM242000 18013G20KT P6SM SCT050
     FM250100 16010KT P6SM SCT250
     FM250600 17012KT P6SM BKN020=

USA.gov is the U.S. government's official web portal to all federal, state and local government web resources and services.